Terminal Aerodrome Forecast
Issued by NWS Spokane, WA

Home | Current Version | Previous Version | Text Only | Print | Product List | Glossary On
Versions: 1 2 3 4 5 6 7 8 9 10 11 12 13 14 15 16 17 18 19
000
FTUS46 KOTX 300534
TAFGEG
TAF
KGEG 300534Z 3006/3106 VRB04KT P6SM SKC
     FM301200 10005KT P6SM SCT150 BKN200
     FM302000 22007KT P6SM BKN120 OVC200
     FM310000 22008KT P6SM VCTS BKN100CB OVC150
     FM310300 23004KT P6SM BKN150=

USA.gov is the U.S. government's official web portal to all federal, state and local government web resources and services.